Aérodrome :
LOGIN :

S'inscrire | Disclaimer

   EN    FR    IT 

 










Légende :    VFR   VFR Marginal   IFR   IFR Intensif   IFR Très Intensif
Visi : 
Plafond : 
>= 8 km
>= 3000ft
5 à 8 km
1000 à 3000 ft
1500m à 5 km
500 à 1000 ft
800 à 1500m
200 à 500 ft
< 800m
< 200 ft
Symboles :   Orages  Brouillard  Fortes neiges  Fortes précipitations  Vent > 20 kt
SIGMETs :   Divers  Orages  Givrage  Turbulence  Onde Orograph.  Cendres Volcan.







- Altitude de l'aérodrome : 1325 ft
- Code IATA : EBU
- Voir les cartes d'approche


LFMH - St-Etienne Boutheon

DERNIER METAR :
  • 172100Z AUTO VRB02KT 9000 BKN009 OVC017 04/02 Q1024 TEMPO 0400 FG VV///

METARs EXPIRÉS :
  • 172030Z AUTO 00000KT 8000 FEW011 OVC019 03/02 Q1024 TEMPO 0400 FG VV///
  • 172000Z AUTO 00000KT 9000 OVC021 03/02 Q1024 TEMPO 0400 FG VV///
  • 171930Z AUTO 15001KT 8000 OVC023 02/01 Q1024 TEMPO 0400 FG VV///
  • 171900Z AUTO 00000KT 9000 SCT021 OVC028 01/00 Q1024 BECMG 3000 BR OVC004
  • 171830Z AUTO 00000KT 9000 FEW021 BKN029 01/M01 Q1024 BECMG 3000 BR OVC004

TAF TAF LFMH
Valide du 17 à 15h jusqu'au 18 à 15h UTC


171400Z 1715/1815 VRB03KT CAVOK
BECMG 1715/1718 BKN012
BECMG 1718/1721 3000 BR OVC004
PROB30
TEMPO 1721/1808 0400 FG VV///
BECMG 1808/1811 BKN008
ATIS : +33 4 77 36 17 51
Pas de NOTAMs connus pour ce terrain.



MET'MAP, la Météo Aéronautique d'un coup d'oeil ! - Copyright ORBIFLY Décembre 2007 - Disclaimer

ORBIFLY MET'MAP TEAM :

Programmation & Développement : Alexandra Zaïnal
Conception & Développement : Baudouin d'Aumeries
Co-Programmation & Développement : Marc-Olivier Méhu
Soutien technique & logistique : Manuel Goepfert

Contact : metmap@orbifly.com




SOURCES & CREDITS :

   NOAA